Portada
METAR-TAF:

METAR-TAF

Aeroports :

Làrnaca, Xipre

latitud: 34-53N, longitud: 033-38E, altitud: 2 m

Observació

L'informe es va fer fa 14 minuts, a les 03:30 UTC
Vent 6 kt del Nord-Oest
Temperatura 12°C
Humitat 82%
Pressió 1019 hPa
Visibilitat 10 km o més
Escasses núvols a una alçada de 3500 ft

METAR: LCLK 240330Z 31006KT 9999 FEW035 12/09 Q1019 NOSIG

Hora: 05:44 (03:44 UTC)

Pronòstic

L'informe es va fer fa 4 hores i 14 minuts, a les 23:30 UTC
Pronòstic vàlid del 24 a les 00 UTC al 24 a les 24 UTC
Vent 8 kt del Nord/Nord-Oest
Visibilitat 10 km o més
Escasses núvols a una alçada de 3000 ft
Evolucionant progressivament
l' 24 a les 07 UTC al 24 a les 09 UTC
Vent 10 kt del Nord-Est
Evolucionant progressivament
l' 24 a les 17 UTC al 24 a les 20 UTC
Vent 8 kt del Nord/Nord-Oest

TAF: LCLK 232330Z 2400/2424 34008KT 9999 FEW030 BECMG 2407/2409 05010KT BECMG 2417/2420 34008KT

Observacions i pronòstics meteorològics de més de 4000 aeroports (METAR i TAF).

Les estacions disponibles són els punts grocs i vermells al mapa.

Posi el ratolí al punt desitjat per veure el nom de l'estació.

Feu clic per veure les observacions i els pronòstics meteorològics.

Per canviar el mapa: feu clic els botons verds amb una creu de color negre per apropar; al botó verd amb un guió per allunyar la imatge; o en les fletxes verdes per a mapes adjacents.


METAR-TAF: